METAR Data
IDs: Format: Raw Decoded Include TAF

Data at: 2009 UTC 26 Sep 2021

METAR for:KEOE (Newberry Muni, SC, US)
Text:KEOE 261955Z AUTO 32003KT 10SM CLR 26/11 A3010 RMK AO2
Temperature: 26.0°C ( 79°F)
Dewpoint: 11.0°C ( 52°F) [RH = 39%]
Pressure (altimeter):30.10 inches Hg (1019.4 mb)
Winds:from the NW (320 degrees) at 3 MPH (3 knots; 1.5 m/s)
Visibility:10 or more sm (16+ km)
Ceiling:at least 12,000 feet AGL
Clouds:sky clear below 12,000 feet AGL
QC Flag:automated observation with no human augmentation

TAF for:KEOE (Newberry Muni, SC, US)
Text:No data found